sensor_id;sensor_type;location;lat;lon;timestamp;temperature;humidity
32706;DHT22;19094;50.972;3.538;2022-12-20T00:01:19;12.70;70.50
32706;DHT22;19094;50.972;3.538;2022-12-20T00:03:47;12.70;71.60
32706;DHT22;19094;50.972;3.538;2022-12-20T00:06:13;12.60;70.70
32706;DHT22;19094;50.972;3.538;2022-12-20T00:08:39;12.70;71.40
32706;DHT22;19094;50.972;3.538;2022-12-20T00:11:06;12.70;71.30
32706;DHT22;19094;50.972;3.538;2022-12-20T00:13:32;12.70;71.10
32706;DHT22;19094;50.972;3.538;2022-12-20T00:16:12;12.70;72.00
32706;DHT22;19094;50.972;3.538;2022-12-20T00:18:39;12.70;71.90
32706;DHT22;19094;50.972;3.538;2022-12-20T00:21:06;12.70;72.00
32706;DHT22;19094;50.972;3.538;2022-12-20T00:23:33;12.70;71.70
32706;DHT22;19094;50.972;3.538;2022-12-20T00:28:26;12.70;71.60
32706;DHT22;19094;50.972;3.538;2022-12-20T00:30:53;12.70;71.80
32706;DHT22;19094;50.972;3.538;2022-12-20T00:33:19;12.70;71.20
32706;DHT22;19094;50.972;3.538;2022-12-20T00:35:44;12.60;71.60
32706;DHT22;19094;50.972;3.538;2022-12-20T00:38:10;12.60;71.80
32706;DHT22;19094;50.972;3.538;2022-12-20T00:40:36;12.60;72.50
32706;DHT22;19094;50.972;3.538;2022-12-20T00:43:01;12.60;71.40
32706;DHT22;19094;50.972;3.538;2022-12-20T00:45:27;12.70;72.10
32706;DHT22;19094;50.972;3.538;2022-12-20T00:47:53;12.60;71.80
32706;DHT22;19094;50.972;3.538;2022-12-20T00:50:19;12.60;71.40
32706;DHT22;19094;50.972;3.538;2022-12-20T00:52:44;12.60;71.30
32706;DHT22;19094;50.972;3.538;2022-12-20T00:55:10;12.60;71.40
32706;DHT22;19094;50.972;3.538;2022-12-20T00:57:36;12.60;71.50
32706;DHT22;19094;50.972;3.538;2022-12-20T01:00:02;12.60;71.80
32706;DHT22;19094;50.972;3.538;2022-12-20T01:02:28;12.60;71.40
32706;DHT22;19094;50.972;3.538;2022-12-20T01:04:53;12.60;71.10
32706;DHT22;19094;50.972;3.538;2022-12-20T01:07:19;12.60;71.50
32706;DHT22;19094;50.972;3.538;2022-12-20T01:09:47;12.60;71.10
32706;DHT22;19094;50.972;3.538;2022-12-20T01:12:13;12.60;71.30
32706;DHT22;19094;50.972;3.538;2022-12-20T01:14:39;12.70;70.50
32706;DHT22;19094;50.972;3.538;2022-12-20T01:17:04;12.70;71.00
32706;DHT22;19094;50.972;3.538;2022-12-20T01:19:30;12.70;70.80
32706;DHT22;19094;50.972;3.538;2022-12-20T01:21:56;12.70;71.00
32706;DHT22;19094;50.972;3.538;2022-12-20T01:24:21;12.70;71.30
32706;DHT22;19094;50.972;3.538;2022-12-20T01:26:47;12.70;71.00
32706;DHT22;19094;50.972;3.538;2022-12-20T01:29:13;12.70;71.30
32706;DHT22;19094;50.972;3.538;2022-12-20T01:31:39;12.70;70.70
32706;DHT22;19094;50.972;3.538;2022-12-20T01:34:05;12.70;70.60
32706;DHT22;19094;50.972;3.538;2022-12-20T01:36:33;12.70;70.90
32706;DHT22;19094;50.972;3.538;2022-12-20T01:39:14;12.70;71.10
32706;DHT22;19094;50.972;3.538;2022-12-20T01:41:40;12.80;70.70
32706;DHT22;19094;50.972;3.538;2022-12-20T01:46:52;12.80;71.20
32706;DHT22;19094;50.972;3.538;2022-12-20T01:51:55;12.80;70.90
32706;DHT22;19094;50.972;3.538;2022-12-20T01:54:46;12.80;70.80
32706;DHT22;19094;50.972;3.538;2022-12-20T01:57:15;12.80;70.60
32706;DHT22;19094;50.972;3.538;2022-12-20T01:59:45;12.80;71.30
32706;DHT22;19094;50.972;3.538;2022-12-20T02:02:12;12.80;71.10
32706;DHT22;19094;50.972;3.538;2022-12-20T02:04:38;12.80;71.10
32706;DHT22;19094;50.972;3.538;2022-12-20T02:07:04;12.80;71.00
32706;DHT22;19094;50.972;3.538;2022-12-20T02:09:32;12.80;71.40
32706;DHT22;19094;50.972;3.538;2022-12-20T02:12:16;12.80;71.50
32706;DHT22;19094;50.972;3.538;2022-12-20T02:31:08;12.80;71.60
32706;DHT22;19094;50.972;3.538;2022-12-20T02:33:36;12.80;70.90
32706;DHT22;19094;50.972;3.538;2022-12-20T02:36:04;12.80;70.90
32706;DHT22;19094;50.972;3.538;2022-12-20T02:38:30;12.80;71.30
32706;DHT22;19094;50.972;3.538;2022-12-20T02:41:22;12.90;70.70
32706;DHT22;19094;50.972;3.538;2022-12-20T02:43:50;12.90;71.30
32706;DHT22;19094;50.972;3.538;2022-12-20T02:46:37;12.90;70.60
32706;DHT22;19094;50.972;3.538;2022-12-20T02:49:12;12.80;70.80
32706;DHT22;19094;50.972;3.538;2022-12-20T02:51:40;12.80;72.00
32706;DHT22;19094;50.972;3.538;2022-12-20T02:54:07;12.80;72.30
32706;DHT22;19094;50.972;3.538;2022-12-20T02:56:42;12.80;72.20
32706;DHT22;19094;50.972;3.538;2022-12-20T03:02:13;12.80;72.50
32706;DHT22;19094;50.972;3.538;2022-12-20T03:04:40;12.80;73.10
32706;DHT22;19094;50.972;3.538;2022-12-20T03:07:10;12.80;72.30
32706;DHT22;19094;50.972;3.538;2022-12-20T03:09:39;12.80;72.50
32706;DHT22;19094;50.972;3.538;2022-12-20T03:12:06;12.80;72.60
32706;DHT22;19094;50.972;3.538;2022-12-20T03:14:32;12.80;72.60
32706;DHT22;19094;50.972;3.538;2022-12-20T03:16:58;12.80;72.90
32706;DHT22;19094;50.972;3.538;2022-12-20T03:19:23;12.90;72.90
32706;DHT22;19094;50.972;3.538;2022-12-20T03:21:49;13.00;72.30
32706;DHT22;19094;50.972;3.538;2022-12-20T03:24:15;12.90;72.00
32706;DHT22;19094;50.972;3.538;2022-12-20T03:26:41;13.00;72.90
32706;DHT22;19094;50.972;3.538;2022-12-20T03:29:08;13.00;72.60
32706;DHT22;19094;50.972;3.538;2022-12-20T03:31:34;13.00;72.50
32706;DHT22;19094;50.972;3.538;2022-12-20T03:34:00;13.00;72.60
32706;DHT22;19094;50.972;3.538;2022-12-20T03:36:26;13.00;72.50
32706;DHT22;19094;50.972;3.538;2022-12-20T03:39:08;13.00;72.00
32706;DHT22;19094;50.972;3.538;2022-12-20T03:41:34;13.00;71.40
32706;DHT22;19094;50.972;3.538;2022-12-20T03:44:00;13.00;71.50
32706;DHT22;19094;50.972;3.538;2022-12-20T03:46:26;13.10;71.60
32706;DHT22;19094;50.972;3.538;2022-12-20T03:48:52;13.10;71.30
32706;DHT22;19094;50.972;3.538;2022-12-20T03:51:17;13.10;71.20
32706;DHT22;19094;50.972;3.538;2022-12-20T03:53:43;13.10;71.10
32706;DHT22;19094;50.972;3.538;2022-12-20T03:56:09;13.10;71.10
32706;DHT22;19094;50.972;3.538;2022-12-20T03:58:35;13.10;71.00
32706;DHT22;19094;50.972;3.538;2022-12-20T04:01:00;13.10;70.90
32706;DHT22;19094;50.972;3.538;2022-12-20T04:03:26;13.10;70.50
32706;DHT22;19094;50.972;3.538;2022-12-20T04:05:52;13.10;71.20
32706;DHT22;19094;50.972;3.538;2022-12-20T04:08:17;13.10;70.80
32706;DHT22;19094;50.972;3.538;2022-12-20T04:10:43;13.10;70.90
32706;DHT22;19094;50.972;3.538;2022-12-20T04:13:27;13.10;71.00
32706;DHT22;19094;50.972;3.538;2022-12-20T04:15:53;13.10;70.80
32706;DHT22;19094;50.972;3.538;2022-12-20T04:18:18;13.10;70.80
32706;DHT22;19094;50.972;3.538;2022-12-20T04:20:44;13.10;70.90
32706;DHT22;19094;50.972;3.538;2022-12-20T04:23:10;13.10;70.90
32706;DHT22;19094;50.972;3.538;2022-12-20T04:25:35;13.10;70.70
32706;DHT22;19094;50.972;3.538;2022-12-20T04:28:01;13.10;70.80
32706;DHT22;19094;50.972;3.538;2022-12-20T04:30:26;13.10;70.70
32706;DHT22;19094;50.972;3.538;2022-12-20T04:32:52;13.10;70.40
32706;DHT22;19094;50.972;3.538;2022-12-20T04:35:19;13.10;70.90
32706;DHT22;19094;50.972;3.538;2022-12-20T04:37:45;13.20;70.80
32706;DHT22;19094;50.972;3.538;2022-12-20T04:40:12;13.10;70.50
32706;DHT22;19094;50.972;3.538;2022-12-20T04:42:38;13.10;70.20
32706;DHT22;19094;50.972;3.538;2022-12-20T04:45:04;13.20;70.60
32706;DHT22;19094;50.972;3.538;2022-12-20T04:47:29;13.10;70.50
32706;DHT22;19094;50.972;3.538;2022-12-20T04:49:55;13.10;70.40
32706;DHT22;19094;50.972;3.538;2022-12-20T04:52:21;13.20;70.30
32706;DHT22;19094;50.972;3.538;2022-12-20T04:55:05;13.20;70.20
32706;DHT22;19094;50.972;3.538;2022-12-20T04:57:31;13.10;70.60
32706;DHT22;19094;50.972;3.538;2022-12-20T04:59:57;13.10;70.50
32706;DHT22;19094;50.972;3.538;2022-12-20T05:02:22;13.10;70.60
32706;DHT22;19094;50.972;3.538;2022-12-20T05:04:48;13.20;70.70
32706;DHT22;19094;50.972;3.538;2022-12-20T05:07:13;13.10;70.50
32706;DHT22;19094;50.972;3.538;2022-12-20T05:09:39;13.20;71.00
32706;DHT22;19094;50.972;3.538;2022-12-20T05:12:05;13.20;70.30
32706;DHT22;19094;50.972;3.538;2022-12-20T05:14:31;13.20;70.80
32706;DHT22;19094;50.972;3.538;2022-12-20T05:16:56;13.20;70.60
32706;DHT22;19094;50.972;3.538;2022-12-20T05:19:22;13.20;70.40
32706;DHT22;19094;50.972;3.538;2022-12-20T05:21:47;13.30;70.30
32706;DHT22;19094;50.972;3.538;2022-12-20T05:24:31;13.20;69.90
32706;DHT22;19094;50.972;3.538;2022-12-20T05:27:29;13.20;70.70
32706;DHT22;19094;50.972;3.538;2022-12-20T05:29:55;13.20;70.20
32706;DHT22;19094;50.972;3.538;2022-12-20T05:32:20;13.20;70.40
32706;DHT22;19094;50.972;3.538;2022-12-20T05:34:46;13.10;70.50
32706;DHT22;19094;50.972;3.538;2022-12-20T05:37:12;13.20;70.30
32706;DHT22;19094;50.972;3.538;2022-12-20T05:39:37;13.20;70.10
32706;DHT22;19094;50.972;3.538;2022-12-20T05:42:03;13.20;70.50
32706;DHT22;19094;50.972;3.538;2022-12-20T05:44:29;13.30;70.20
32706;DHT22;19094;50.972;3.538;2022-12-20T05:46:54;13.30;70.00
32706;DHT22;19094;50.972;3.538;2022-12-20T05:49:20;13.30;69.80
32706;DHT22;19094;50.972;3.538;2022-12-20T05:51:46;13.30;70.60
32706;DHT22;19094;50.972;3.538;2022-12-20T05:54:11;13.30;70.00
32706;DHT22;19094;50.972;3.538;2022-12-20T05:56:37;13.30;69.60
32706;DHT22;19094;50.972;3.538;2022-12-20T05:59:03;13.30;69.70
32706;DHT22;19094;50.972;3.538;2022-12-20T06:01:28;13.30;69.30
32706;DHT22;19094;50.972;3.538;2022-12-20T06:03:54;13.30;70.20
32706;DHT22;19094;50.972;3.538;2022-12-20T06:06:21;13.30;69.40
32706;DHT22;19094;50.972;3.538;2022-12-20T06:08:47;13.30;69.70
32706;DHT22;19094;50.972;3.538;2022-12-20T06:11:13;13.30;70.00
32706;DHT22;19094;50.972;3.538;2022-12-20T06:13:39;13.30;70.00
32706;DHT22;19094;50.972;3.538;2022-12-20T06:16:05;13.40;69.30
32706;DHT22;19094;50.972;3.538;2022-12-20T06:18:31;13.40;69.80
32706;DHT22;19094;50.972;3.538;2022-12-20T06:20:57;13.40;69.30
32706;DHT22;19094;50.972;3.538;2022-12-20T06:23:23;13.40;69.10
32706;DHT22;19094;50.972;3.538;2022-12-20T06:25:49;13.40;69.30
32706;DHT22;19094;50.972;3.538;2022-12-20T06:28:14;13.40;69.20
32706;DHT22;19094;50.972;3.538;2022-12-20T06:30:51;13.40;69.00
32706;DHT22;19094;50.972;3.538;2022-12-20T06:33:17;13.40;70.10
32706;DHT22;19094;50.972;3.538;2022-12-20T06:35:43;13.40;70.40
32706;DHT22;19094;50.972;3.538;2022-12-20T06:38:08;13.30;69.80
32706;DHT22;19094;50.972;3.538;2022-12-20T06:40:34;13.30;70.30
32706;DHT22;19094;50.972;3.538;2022-12-20T06:43:00;13.30;70.00
32706;DHT22;19094;50.972;3.538;2022-12-20T06:45:25;13.30;70.70
32706;DHT22;19094;50.972;3.538;2022-12-20T06:47:51;13.30;70.60
32706;DHT22;19094;50.972;3.538;2022-12-20T06:50:16;13.30;70.00
32706;DHT22;19094;50.972;3.538;2022-12-20T06:52:42;13.40;71.10
32706;DHT22;19094;50.972;3.538;2022-12-20T06:55:08;13.30;70.00
32706;DHT22;19094;50.972;3.538;2022-12-20T06:57:33;13.40;70.30
32706;DHT22;19094;50.972;3.538;2022-12-20T06:59:59;13.40;70.80
32706;DHT22;19094;50.972;3.538;2022-12-20T07:02:25;13.40;70.40
32706;DHT22;19094;50.972;3.538;2022-12-20T07:04:50;13.30;70.50
32706;DHT22;19094;50.972;3.538;2022-12-20T07:07:16;13.30;71.10
32706;DHT22;19094;50.972;3.538;2022-12-20T07:09:42;13.20;71.30
32706;DHT22;19094;50.972;3.538;2022-12-20T07:12:08;13.20;71.30
32706;DHT22;19094;50.972;3.538;2022-12-20T07:14:34;13.30;71.40
32706;DHT22;19094;50.972;3.538;2022-12-20T07:16:59;13.20;71.40
32706;DHT22;19094;50.972;3.538;2022-12-20T07:19:25;13.20;71.50
32706;DHT22;19094;50.972;3.538;2022-12-20T07:21:51;13.20;72.10
32706;DHT22;19094;50.972;3.538;2022-12-20T07:24:16;13.20;71.80
32706;DHT22;19094;50.972;3.538;2022-12-20T07:26:45;13.20;72.40
32706;DHT22;19094;50.972;3.538;2022-12-20T07:29:14;13.20;72.70
32706;DHT22;19094;50.972;3.538;2022-12-20T07:31:39;13.10;72.30
32706;DHT22;19094;50.972;3.538;2022-12-20T07:34:05;13.10;72.30
32706;DHT22;19094;50.972;3.538;2022-12-20T07:36:31;13.10;72.00
32706;DHT22;19094;50.972;3.538;2022-12-20T07:38:57;13.10;72.60
32706;DHT22;19094;50.972;3.538;2022-12-20T07:41:22;13.10;73.20
32706;DHT22;19094;50.972;3.538;2022-12-20T07:43:50;13.10;72.80
32706;DHT22;19094;50.972;3.538;2022-12-20T07:46:16;13.10;72.80
32706;DHT22;19094;50.972;3.538;2022-12-20T07:48:42;13.00;72.80
32706;DHT22;19094;50.972;3.538;2022-12-20T07:51:13;13.00;73.00
32706;DHT22;19094;50.972;3.538;2022-12-20T07:53:42;13.00;73.20
32706;DHT22;19094;50.972;3.538;2022-12-20T07:56:09;13.00;73.70
32706;DHT22;19094;50.972;3.538;2022-12-20T07:58:38;13.00;73.40
32706;DHT22;19094;50.972;3.538;2022-12-20T08:01:05;13.00;73.30
32706;DHT22;19094;50.972;3.538;2022-12-20T08:03:36;13.00;73.60
32706;DHT22;19094;50.972;3.538;2022-12-20T08:06:04;13.00;73.40
32706;DHT22;19094;50.972;3.538;2022-12-20T08:08:32;12.90;73.50
32706;DHT22;19094;50.972;3.538;2022-12-20T08:10:59;12.90;73.70
32706;DHT22;19094;50.972;3.538;2022-12-20T08:13:26;12.90;73.80
32706;DHT22;19094;50.972;3.538;2022-12-20T08:15:51;12.90;73.90
32706;DHT22;19094;50.972;3.538;2022-12-20T08:18:17;12.90;74.30
32706;DHT22;19094;50.972;3.538;2022-12-20T08:20:43;12.90;73.60
32706;DHT22;19094;50.972;3.538;2022-12-20T08:23:08;12.90;74.00
32706;DHT22;19094;50.972;3.538;2022-12-20T08:25:34;12.90;74.00
32706;DHT22;19094;50.972;3.538;2022-12-20T08:28:00;12.90;73.60
32706;DHT22;19094;50.972;3.538;2022-12-20T08:30:27;12.90;74.00
32706;DHT22;19094;50.972;3.538;2022-12-20T08:32:54;12.90;73.80
32706;DHT22;19094;50.972;3.538;2022-12-20T08:35:20;12.90;73.70
32706;DHT22;19094;50.972;3.538;2022-12-20T08:37:46;12.90;74.30
32706;DHT22;19094;50.972;3.538;2022-12-20T08:40:12;12.80;73.60
32706;DHT22;19094;50.972;3.538;2022-12-20T08:42:37;12.80;74.20
32706;DHT22;19094;50.972;3.538;2022-12-20T08:45:04;12.80;74.40
32706;DHT22;19094;50.972;3.538;2022-12-20T08:47:30;12.80;74.00
32706;DHT22;19094;50.972;3.538;2022-12-20T08:49:55;12.90;74.10
32706;DHT22;19094;50.972;3.538;2022-12-20T08:52:21;12.90;74.80
32706;DHT22;19094;50.972;3.538;2022-12-20T08:54:47;12.80;73.90
32706;DHT22;19094;50.972;3.538;2022-12-20T08:57:12;12.90;74.20
32706;DHT22;19094;50.972;3.538;2022-12-20T08:59:38;12.90;74.50
32706;DHT22;19094;50.972;3.538;2022-12-20T09:02:04;12.90;74.60
32706;DHT22;19094;50.972;3.538;2022-12-20T09:04:30;12.80;74.50
32706;DHT22;19094;50.972;3.538;2022-12-20T09:06:55;12.80;74.60
32706;DHT22;19094;50.972;3.538;2022-12-20T09:09:21;12.90;75.00
32706;DHT22;19094;50.972;3.538;2022-12-20T09:11:47;12.90;75.00
32706;DHT22;19094;50.972;3.538;2022-12-20T09:14:12;12.90;75.10
32706;DHT22;19094;50.972;3.538;2022-12-20T09:16:38;12.90;74.70
32706;DHT22;19094;50.972;3.538;2022-12-20T09:19:04;13.00;75.00
32706;DHT22;19094;50.972;3.538;2022-12-20T09:21:30;13.00;74.80
32706;DHT22;19094;50.972;3.538;2022-12-20T09:23:56;12.90;75.00
32706;DHT22;19094;50.972;3.538;2022-12-20T09:26:23;12.90;75.50
32706;DHT22;19094;50.972;3.538;2022-12-20T09:28:49;13.00;75.10
32706;DHT22;19094;50.972;3.538;2022-12-20T09:31:17;13.00;75.10
32706;DHT22;19094;50.972;3.538;2022-12-20T09:33:44;13.00;75.10
32706;DHT22;19094;50.972;3.538;2022-12-20T09:36:11;13.00;74.80
32706;DHT22;19094;50.972;3.538;2022-12-20T09:38:37;13.00;75.10
32706;DHT22;19094;50.972;3.538;2022-12-20T09:41:05;13.00;74.80
32706;DHT22;19094;50.972;3.538;2022-12-20T09:43:33;13.00;75.10
32706;DHT22;19094;50.972;3.538;2022-12-20T09:46:01;13.10;75.00
32706;DHT22;19094;50.972;3.538;2022-12-20T09:48:34;13.10;74.90
32706;DHT22;19094;50.972;3.538;2022-12-20T09:56:31;13.00;76.20
32706;DHT22;19094;50.972;3.538;2022-12-20T10:01:33;13.00;75.90
32706;DHT22;19094;50.972;3.538;2022-12-20T10:04:21;13.00;75.40
32706;DHT22;19094;50.972;3.538;2022-12-20T10:23:03;13.00;76.10
32706;DHT22;19094;50.972;3.538;2022-12-20T10:25:33;13.00;76.20
32706;DHT22;19094;50.972;3.538;2022-12-20T10:28:09;13.00;75.70
32706;DHT22;19094;50.972;3.538;2022-12-20T10:30:35;13.00;76.20
32706;DHT22;19094;50.972;3.538;2022-12-20T10:33:01;13.00;75.70
32706;DHT22;19094;50.972;3.538;2022-12-20T10:35:38;13.00;76.00
32706;DHT22;19094;50.972;3.538;2022-12-20T10:38:09;13.10;76.30
32706;DHT22;19094;50.972;3.538;2022-12-20T10:40:47;13.00;75.70
32706;DHT22;19094;50.972;3.538;2022-12-20T10:43:23;13.00;76.40
32706;DHT22;19094;50.972;3.538;2022-12-20T10:45:59;13.00;79.20
32706;DHT22;19094;50.972;3.538;2022-12-20T10:51:19;13.00;76.40
32706;DHT22;19094;50.972;3.538;2022-12-20T10:53:59;13.10;78.10
32706;DHT22;19094;50.972;3.538;2022-12-20T10:56:27;13.10;76.50
32706;DHT22;19094;50.972;3.538;2022-12-20T10:59:00;13.00;75.90
32706;DHT22;19094;50.972;3.538;2022-12-20T11:01:36;13.00;76.20
32706;DHT22;19094;50.972;3.538;2022-12-20T11:04:32;13.10;76.80
32706;DHT22;19094;50.972;3.538;2022-12-20T11:07:03;13.10;77.60
32706;DHT22;19094;50.972;3.538;2022-12-20T11:09:54;13.10;76.40
32706;DHT22;19094;50.972;3.538;2022-12-20T11:12:20;13.10;75.80
32706;DHT22;19094;50.972;3.538;2022-12-20T11:14:46;13.10;76.20
32706;DHT22;19094;50.972;3.538;2022-12-20T11:17:19;13.10;76.10
32706;DHT22;19094;50.972;3.538;2022-12-20T11:38:33;13.20;76.70
32706;DHT22;19094;50.972;3.538;2022-12-20T11:41:22;13.20;76.90
32706;DHT22;19094;50.972;3.538;2022-12-20T11:44:05;13.10;77.30
32706;DHT22;19094;50.972;3.538;2022-12-20T11:52:55;13.10;77.30
32706;DHT22;19094;50.972;3.538;2022-12-20T11:55:33;13.10;77.40
32706;DHT22;19094;50.972;3.538;2022-12-20T12:00:26;13.10;77.00
32706;DHT22;19094;50.972;3.538;2022-12-20T12:05:43;13.20;78.00
32706;DHT22;19094;50.972;3.538;2022-12-20T12:08:15;13.10;76.60
32706;DHT22;19094;50.972;3.538;2022-12-20T12:10:50;13.10;76.80
32706;DHT22;19094;50.972;3.538;2022-12-20T12:13:23;13.10;76.50
32706;DHT22;19094;50.972;3.538;2022-12-20T12:16:18;13.10;76.30
32706;DHT22;19094;50.972;3.538;2022-12-20T12:18:45;13.10;77.50
32706;DHT22;19094;50.972;3.538;2022-12-20T12:21:46;13.10;76.60
32706;DHT22;19094;50.972;3.538;2022-12-20T12:24:34;13.10;77.50
32706;DHT22;19094;50.972;3.538;2022-12-20T12:27:00;13.10;76.20
32706;DHT22;19094;50.972;3.538;2022-12-20T12:29:28;13.10;76.50
32706;DHT22;19094;50.972;3.538;2022-12-20T12:32:01;13.10;76.30
32706;DHT22;19094;50.972;3.538;2022-12-20T12:34:31;13.10;76.40
32706;DHT22;19094;50.972;3.538;2022-12-20T12:50:52;13.00;76.80
32706;DHT22;19094;50.972;3.538;2022-12-20T12:55:52;13.00;76.60
32706;DHT22;19094;50.972;3.538;2022-12-20T13:09:18;13.00;78.10
32706;DHT22;19094;50.972;3.538;2022-12-20T13:11:45;13.00;77.40
32706;DHT22;19094;50.972;3.538;2022-12-20T13:16:47;13.00;76.70
32706;DHT22;19094;50.972;3.538;2022-12-20T13:21:43;13.00;76.70
32706;DHT22;19094;50.972;3.538;2022-12-20T13:30:23;13.00;77.00
32706;DHT22;19094;50.972;3.538;2022-12-20T13:40:45;13.00;76.80
32706;DHT22;19094;50.972;3.538;2022-12-20T13:43:23;13.10;76.90
32706;DHT22;19094;50.972;3.538;2022-12-20T13:51:16;13.10;76.90
32706;DHT22;19094;50.972;3.538;2022-12-20T13:54:00;13.10;76.30
32706;DHT22;19094;50.972;3.538;2022-12-20T13:58:58;13.00;76.50
32706;DHT22;19094;50.972;3.538;2022-12-20T14:01:28;13.00;76.40
32706;DHT22;19094;50.972;3.538;2022-12-20T14:03:55;13.10;76.80
32706;DHT22;19094;50.972;3.538;2022-12-20T14:06:24;13.00;76.40
32706;DHT22;19094;50.972;3.538;2022-12-20T14:08:51;13.00;76.40
32706;DHT22;19094;50.972;3.538;2022-12-20T14:11:22;13.10;76.90
32706;DHT22;19094;50.972;3.538;2022-12-20T14:13:58;13.00;76.30
32706;DHT22;19094;50.972;3.538;2022-12-20T14:16:26;13.00;76.60
32706;DHT22;19094;50.972;3.538;2022-12-20T14:19:10;13.00;76.50
32706;DHT22;19094;50.972;3.538;2022-12-20T14:21:40;13.00;77.60
32706;DHT22;19094;50.972;3.538;2022-12-20T14:24:18;13.00;76.20
32706;DHT22;19094;50.972;3.538;2022-12-20T14:26:46;13.10;76.70
32706;DHT22;19094;50.972;3.538;2022-12-20T14:29:27;13.10;76.90
32706;DHT22;19094;50.972;3.538;2022-12-20T14:31:53;13.10;76.90
32706;DHT22;19094;50.972;3.538;2022-12-20T14:34:29;13.10;76.70
32706;DHT22;19094;50.972;3.538;2022-12-20T14:40:13;13.00;77.30
32706;DHT22;19094;50.972;3.538;2022-12-20T14:42:41;13.10;77.30
32706;DHT22;19094;50.972;3.538;2022-12-20T14:48:02;13.00;76.70
32706;DHT22;19094;50.972;3.538;2022-12-20T14:50:36;13.10;77.50
32706;DHT22;19094;50.972;3.538;2022-12-20T14:53:03;13.10;76.70
32706;DHT22;19094;50.972;3.538;2022-12-20T14:55:38;13.10;76.80
32706;DHT22;19094;50.972;3.538;2022-12-20T14:58:30;13.10;76.40
32706;DHT22;19094;50.972;3.538;2022-12-20T15:01:02;13.10;77.50
32706;DHT22;19094;50.972;3.538;2022-12-20T15:03:55;13.10;77.10
32706;DHT22;19094;50.972;3.538;2022-12-20T15:06:40;13.10;77.20
32706;DHT22;19094;50.972;3.538;2022-12-20T15:09:07;13.10;77.40
32706;DHT22;19094;50.972;3.538;2022-12-20T15:11:34;13.00;76.70
32706;DHT22;19094;50.972;3.538;2022-12-20T15:14:01;13.00;76.60
32706;DHT22;19094;50.972;3.538;2022-12-20T15:16:29;13.10;76.90
32706;DHT22;19094;50.972;3.538;2022-12-20T15:18:57;13.10;76.80
32706;DHT22;19094;50.972;3.538;2022-12-20T15:21:37;13.20;77.00
32706;DHT22;19094;50.972;3.538;2022-12-20T15:24:11;13.20;77.00
32706;DHT22;19094;50.972;3.538;2022-12-20T15:26:37;13.20;76.70
32706;DHT22;19094;50.972;3.538;2022-12-20T15:29:03;13.20;76.90
32706;DHT22;19094;50.972;3.538;2022-12-20T15:31:29;13.20;76.80
32706;DHT22;19094;50.972;3.538;2022-12-20T15:33:55;13.10;76.70
32706;DHT22;19094;50.972;3.538;2022-12-20T15:36:26;13.20;76.70
32706;DHT22;19094;50.972;3.538;2022-12-20T15:38:54;13.20;76.90
32706;DHT22;19094;50.972;3.538;2022-12-20T15:41:30;13.20;77.00
32706;DHT22;19094;50.972;3.538;2022-12-20T15:43:59;13.20;76.90
32706;DHT22;19094;50.972;3.538;2022-12-20T15:46:25;13.20;76.70
32706;DHT22;19094;50.972;3.538;2022-12-20T15:48:52;13.20;76.90
32706;DHT22;19094;50.972;3.538;2022-12-20T15:51:30;13.30;76.80
32706;DHT22;19094;50.972;3.538;2022-12-20T15:53:58;13.30;77.00
32706;DHT22;19094;50.972;3.538;2022-12-20T15:56:24;13.30;76.40
32706;DHT22;19094;50.972;3.538;2022-12-20T15:58:51;13.30;76.40
32706;DHT22;19094;50.972;3.538;2022-12-20T16:01:26;13.30;76.40
32706;DHT22;19094;50.972;3.538;2022-12-20T16:03:52;13.30;76.80
32706;DHT22;19094;50.972;3.538;2022-12-20T16:06:18;13.20;76.70
32706;DHT22;19094;50.972;3.538;2022-12-20T16:08:44;13.30;76.60
32706;DHT22;19094;50.972;3.538;2022-12-20T16:11:25;13.30;76.50
32706;DHT22;19094;50.972;3.538;2022-12-20T16:13:54;13.30;76.80
32706;DHT22;19094;50.972;3.538;2022-12-20T16:16:23;13.20;78.30
32706;DHT22;19094;50.972;3.538;2022-12-20T16:18:50;13.30;77.00
32706;DHT22;19094;50.972;3.538;2022-12-20T16:21:25;13.30;76.70
32706;DHT22;19094;50.972;3.538;2022-12-20T16:23:52;13.30;76.60
32706;DHT22;19094;50.972;3.538;2022-12-20T16:26:23;13.20;77.00
32706;DHT22;19094;50.972;3.538;2022-12-20T16:28:51;13.20;76.90
32706;DHT22;19094;50.972;3.538;2022-12-20T16:31:21;13.30;76.90
32706;DHT22;19094;50.972;3.538;2022-12-20T16:33:48;13.30;76.60
32706;DHT22;19094;50.972;3.538;2022-12-20T16:36:17;13.30;76.60
32706;DHT22;19094;50.972;3.538;2022-12-20T16:38:43;13.30;76.30
32706;DHT22;19094;50.972;3.538;2022-12-20T16:41:15;13.30;76.80
32706;DHT22;19094;50.972;3.538;2022-12-20T16:43:41;13.30;76.50
32706;DHT22;19094;50.972;3.538;2022-12-20T16:46:13;13.20;76.00
32706;DHT22;19094;50.972;3.538;2022-12-20T16:48:41;13.20;76.10
32706;DHT22;19094;50.972;3.538;2022-12-20T16:51:27;13.30;76.60
32706;DHT22;19094;50.972;3.538;2022-12-20T16:54:17;13.30;77.10
32706;DHT22;19094;50.972;3.538;2022-12-20T16:56:47;13.40;76.50
32706;DHT22;19094;50.972;3.538;2022-12-20T16:59:15;13.30;76.30
32706;DHT22;19094;50.972;3.538;2022-12-20T17:01:42;13.30;76.50
32706;DHT22;19094;50.972;3.538;2022-12-20T17:04:13;13.30;76.40
32706;DHT22;19094;50.972;3.538;2022-12-20T17:06:40;13.30;76.00
32706;DHT22;19094;50.972;3.538;2022-12-20T17:09:07;13.30;76.40
32706;DHT22;19094;50.972;3.538;2022-12-20T17:11:33;13.30;76.60
32706;DHT22;19094;50.972;3.538;2022-12-20T17:13:58;13.20;76.70
32706;DHT22;19094;50.972;3.538;2022-12-20T17:16:25;13.10;76.50
32706;DHT22;19094;50.972;3.538;2022-12-20T17:18:53;13.00;75.80
32706;DHT22;19094;50.972;3.538;2022-12-20T17:21:22;13.00;76.10
32706;DHT22;19094;50.972;3.538;2022-12-20T17:23:49;13.00;76.30
32706;DHT22;19094;50.972;3.538;2022-12-20T17:26:18;13.00;75.90
32706;DHT22;19094;50.972;3.538;2022-12-20T17:28:46;13.00;76.20
32706;DHT22;19094;50.972;3.538;2022-12-20T17:31:33;13.10;76.90
32706;DHT22;19094;50.972;3.538;2022-12-20T17:34:04;13.30;76.30
32706;DHT22;19094;50.972;3.538;2022-12-20T17:36:31;13.30;76.30
32706;DHT22;19094;50.972;3.538;2022-12-20T17:38:56;13.30;75.90
32706;DHT22;19094;50.972;3.538;2022-12-20T17:41:29;13.30;76.30
32706;DHT22;19094;50.972;3.538;2022-12-20T17:43:57;13.40;76.20
32706;DHT22;19094;50.972;3.538;2022-12-20T17:46:23;13.40;76.20
32706;DHT22;19094;50.972;3.538;2022-12-20T17:48:50;13.30;75.80
32706;DHT22;19094;50.972;3.538;2022-12-20T17:51:27;13.30;76.10
32706;DHT22;19094;50.972;3.538;2022-12-20T17:53:58;13.30;76.30
32706;DHT22;19094;50.972;3.538;2022-12-20T17:56:33;13.20;75.70
32706;DHT22;19094;50.972;3.538;2022-12-20T17:59:00;13.20;75.40
32706;DHT22;19094;50.972;3.538;2022-12-20T18:01:33;13.20;75.70
32706;DHT22;19094;50.972;3.538;2022-12-20T18:04:03;13.20;76.10
32706;DHT22;19094;50.972;3.538;2022-12-20T18:06:33;13.20;75.70